Time;durP1;ratioP1;P1;durP2;ratioP2;P2;SDS_P1;SDS_P2;PMS_P1;PMS_P2;Temp;Humidity;BMP_temperature;BMP_pressure;BME280_temperature;BME280_humidity;BME280_pressure;Samples;Min_cycle;Max_cycle;Signal;HPM_P1;HPM_P2
2022/09/29 04:14:35;;;;;;;29.17;17.62;;;;;;;11.07;100.00;98849.91;5554992;32;253459;-88
2022/09/29 04:17:38;;;;;;;33.95;18.83;;;;;;;11.00;100.00;98862.78;5543026;32;33933;-88
2022/09/29 04:20:41;;;;;;;27.85;16.85;;;;;;;11.05;100.00;98860.63;5543240;32;33800;-89
2022/09/29 04:23:45;;;;;;;24.85;16.15;;;;;;;11.07;100.00;98861.38;5542764;32;32603;-88
2022/09/29 04:26:47;;;;;;;22.15;14.38;;;;;;;11.21;100.00;98857.63;5547243;32;33841;-89
2022/09/29 04:29:50;;;;;;;22.95;13.52;;;;;;;11.13;100.00;98860.91;5544588;32;33516;-89
2022/09/29 04:32:56;;;;;;;24.87;13.20;;;;;;;11.22;100.00;98858.50;5542811;32;34244;-89
2022/09/29 04:35:59;;;;;;;22.02;13.07;;;;;;;11.13;100.00;98846.78;5544403;32;34288;-89
2022/09/29 04:39:01;;;;;;;18.40;12.75;;;;;;;11.14;100.00;98857.28;5543037;32;34389;-89
2022/09/29 04:42:04;;;;;;;20.25;12.50;;;;;;;11.19;100.00;98859.56;5549544;32;34348;-89
2022/09/29 04:45:07;;;;;;;19.42;12.07;;;;;;;11.16;100.00;98855.34;5557509;32;35138;-89
2022/09/29 04:48:10;;;;;;;19.17;12.57;;;;;;;11.22;100.00;98859.31;5542499;32;33868;-88
2022/09/29 04:51:12;;;;;;;17.65;11.95;;;;;;;11.22;100.00;98864.63;5543348;32;34430;-89
2022/09/29 04:54:16;;;;;;;19.70;13.07;;;;;;;11.24;100.00;98859.22;5542741;32;34509;-88
2022/09/29 04:57:18;;;;;;;18.52;12.13;;;;;;;11.26;100.00;98863.44;5544464;32;34034;-88
2022/09/29 05:00:21;;;;;;;17.37;12.05;;;;;;;11.36;100.00;98863.59;5544899;32;33847;-88
2022/09/29 05:03:24;;;;;;;17.55;12.00;;;;;;;11.32;100.00;98855.00;5557906;32;33767;-88
2022/09/29 05:06:27;;;;;;;16.67;12.07;;;;;;;11.27;100.00;98859.00;5549147;32;34296;-88
2022/09/29 05:09:30;;;;;;;22.27;12.48;;;;;;;11.33;100.00;98864.66;5541825;32;33143;-88
2022/09/29 05:12:35;;;;;;;16.85;11.77;;;;;;;11.46;100.00;98859.25;5542313;32;34446;-88
2022/09/29 05:15:38;;;;;;;19.80;12.23;;;;;;;11.62;100.00;98860.69;5541515;32;32520;-88
2022/09/29 05:18:40;;;;;;;19.08;11.98;;;;;;;11.61;100.00;98866.97;5542452;32;34048;-88
2022/09/29 05:21:43;;;;;;;17.52;11.88;;;;;;;11.57;100.00;98868.19;5543225;32;33553;-89
2022/09/29 05:24:46;;;;;;;17.65;12.30;;;;;;;11.71;100.00;98869.75;5535202;32;33962;-89
2022/09/29 05:27:48;;;;;;;17.10;12.05;;;;;;;11.76;100.00;98867.59;5531842;32;34347;-90
2022/09/29 05:30:51;;;;;;;16.48;11.38;;;;;;;11.68;100.00;98864.69;5532005;32;34564;-89
2022/09/29 05:33:55;;;;;;;17.45;11.95;;;;;;;11.65;100.00;98876.41;5529755;32;34376;-89
2022/09/29 05:36:58;;;;;;;18.67;11.98;;;;;;;11.59;100.00;98875.09;5543482;32;34458;-89
2022/09/29 05:40:01;;;;;;;17.23;12.32;;;;;;;11.62;100.00;98871.31;5520750;32;33635;-89
2022/09/29 05:43:04;;;;;;;17.75;12.40;;;;;;;11.68;100.00;98870.84;5535624;32;34437;-89
2022/09/29 05:46:08;;;;;;;17.70;12.65;;;;;;;11.67;100.00;98873.63;5535457;32;34609;-90
2022/09/29 05:49:12;;;;;;;17.77;12.77;;;;;;;11.61;100.00;98877.59;5535129;32;33805;-89
2022/09/29 05:52:14;;;;;;;20.90;12.90;;;;;;;11.65;100.00;98883.50;5537439;32;34031;-89
2022/09/29 05:55:17;;;;;;;19.42;12.75;;;;;;;11.67;100.00;98871.81;5528633;32;33572;-90
2022/09/29 05:58:20;;;;;;;20.85;13.93;;;;;;;11.67;100.00;98886.91;5518495;32;33983;-90
2022/09/29 06:01:24;;;;;;;17.92;12.43;;;;;;;11.65;100.00;98888.81;5559815;26;34276;-88
2022/09/29 06:04:27;;;;;;;19.37;12.93;;;;;;;11.61;100.00;98892.72;5546102;32;33425;-86
2022/09/29 06:07:30;;;;;;;21.50;13.25;;;;;;;11.58;100.00;98891.97;5529448;32;34598;-87
2022/09/29 06:10:33;;;;;;;20.60;13.80;;;;;;;11.56;100.00;98899.22;5539958;32;33251;-86
2022/09/29 06:13:40;;;;;;;18.92;14.40;;;;;;;11.61;100.00;98898.03;5538418;32;33505;-86
2022/09/29 06:16:43;;;;;;;19.92;14.32;;;;;;;11.53;100.00;98902.13;5540009;32;35416;-86
2022/09/29 06:19:46;;;;;;;16.73;12.98;;;;;;;11.58;100.00;98896.44;5541755;32;33794;-87
2022/09/29 06:22:50;;;;;;;21.42;14.05;;;;;;;11.61;100.00;98909.47;5550815;32;33752;-89
2022/09/29 06:26:03;;;;;;;19.05;13.55;;;;;;;11.65;100.00;98904.75;5548743;32;35041;-87
2022/09/29 06:29:06;;;;;;;21.75;14.68;;;;;;;11.64;100.00;98916.34;5544576;32;33847;-85
2022/09/29 06:32:08;;;;;;;17.27;12.43;;;;;;;11.71;100.00;98913.13;5549999;32;33877;-86
2022/09/29 06:38:33;;;;;;;10.23;8.57;;;;;;;11.86;100.00;98923.50;5537562;32;33752;-86
2022/09/29 06:41:35;;;;;;;12.23;9.13;;;;;;;11.71;100.00;98920.22;5543883;32;32511;-87
2022/09/29 06:44:40;;;;;;;9.98;7.78;;;;;;;11.62;100.00;98913.81;5569536;31;34487;-91
2022/09/29 06:47:43;;;;;;;9.50;7.37;;;;;;;11.67;100.00;98916.97;5550344;32;34101;-90
2022/09/29 06:50:47;;;;;;;10.07;7.25;;;;;;;11.55;100.00;98924.09;5545138;32;34273;-91
2022/09/29 07:09:23;;;;;;;2.92;2.62;;;;;;;11.22;100.00;98951.41;4872859;30;20108;-89
2022/09/29 07:12:29;;;;;;;6.50;3.25;;;;;;;11.08;100.00;98944.47;5558721;32;33610;-89
2022/09/29 07:15:31;;;;;;;3.72;2.42;;;;;;;11.10;100.00;98940.75;5523581;32;33492;-90
2022/09/29 07:18:36;;;;;;;2.42;2.22;;;;;;;11.18;100.00;98948.13;5509717;32;33519;-89
2022/09/29 07:21:39;;;;;;;2.47;2.28;;;;;;;11.37;100.00;98958.19;5531010;32;34618;-89
2022/09/29 07:24:42;;;;;;;5.37;2.22;;;;;;;11.32;100.00;98952.41;5538675;32;33830;-90
2022/09/29 07:27:46;;;;;;;4.07;2.30;;;;;;;11.50;100.00;98957.25;5547223;32;33749;-88
2022/09/29 07:31:02;;;;;;;2.72;2.10;;;;;;;11.24;100.00;98960.94;5548843;32;34169;-87
2022/09/29 07:34:16;;;;;;;2.75;2.55;;;;;;;11.36;100.00;98955.66;5548953;32;33818;-90
2022/09/29 07:37:18;;;;;;;4.20;2.92;;;;;;;11.47;100.00;98958.38;5534323;32;32920;-90
2022/09/29 07:40:22;;;;;;;3.22;2.92;;;;;;;11.61;100.00;98967.91;5562754;32;34758;-90
2022/09/29 07:43:27;;;;;;;4.10;2.80;;;;;;;11.76;100.00;98967.72;5539203;32;32492;-91
2022/09/29 07:46:31;;;;;;;4.78;2.87;;;;;;;12.03;100.00;98970.03;5552546;32;34206;-90
2022/09/29 07:49:34;;;;;;;3.45;3.15;;;;;;;12.34;100.00;98969.44;5550243;32;35408;-92
2022/09/29 07:52:49;;;;;;;3.20;3.00;;;;;;;12.81;100.00;98966.56;5537825;32;32580;-90
2022/09/29 07:56:12;;;;;;;3.28;2.97;;;;;;;13.03;100.00;98984.25;5561174;32;33991;-88
2022/09/29 07:59:15;;;;;;;3.95;3.25;;;;;;;13.55;100.00;98983.59;5552647;32;35274;-89
2022/09/29 08:02:17;;;;;;;4.00;3.30;;;;;;;13.95;100.00;98994.47;5528938;32;33469;-88
2022/09/29 08:05:21;;;;;;;3.80;2.95;;;;;;;13.84;100.00;99006.06;5541349;32;34275;-88
2022/09/29 08:08:24;;;;;;;3.50;3.30;;;;;;;13.65;100.00;99004.97;5501384;32;32801;-89
2022/09/29 08:11:27;;;;;;;3.90;3.50;;;;;;;13.38;100.00;99002.78;5523715;32;33801;-89
2022/09/29 08:14:34;;;;;;;3.70;3.40;;;;;;;13.62;100.00;98999.88;5536910;32;34894;-89
2022/09/29 08:17:37;;;;;;;4.82;3.62;;;;;;;14.23;100.00;99000.91;5538938;32;35279;-89
2022/09/29 08:20:39;;;;;;;3.65;3.25;;;;;;;15.68;100.00;99004.09;5527911;32;34416;-90
2022/09/29 08:23:42;;;;;;;4.10;2.83;;;;;;;15.73;100.00;99011.69;5514714;32;34021;-91
2022/09/29 08:45:55;;;;;;;2.10;2.00;;;;;;;14.45;100.00;99028.41;4909089;30;20123;-89
2022/09/29 08:49:10;;;;;;;2.58;2.37;;;;;;;13.88;100.00;99034.13;5513603;32;34084;-87
2022/09/29 08:52:33;;;;;;;;;;;;;;;13.79;100.00;99035.78;5507096;32;33811;-88
2022/09/29 08:55:52;;;;;;;3.42;2.15;;;;;;;13.67;100.00;99023.50;5506820;32;34894;-88
2022/09/29 08:58:55;;;;;;;2.15;2.05;;;;;;;13.63;100.00;99033.53;5509579;32;33721;-88
2022/09/29 09:02:27;;;;;;;2.28;2.00;;;;;;;13.83;100.00;99042.53;5513947;32;33352;-88
2022/09/29 09:05:56;;;;;;;2.05;1.87;;;;;;;13.83;100.00;99031.88;5500643;32;34208;-88
2022/09/29 09:09:22;;;;;;;2.10;1.90;;;;;;;14.40;100.00;99030.63;5515530;32;34008;-88
2022/09/29 09:12:40;;;;;;;2.22;1.73;;;;;;;14.61;100.00;99029.69;5570998;26;34968;-88
2022/09/29 09:16:02;;;;;;;2.15;1.98;;;;;;;15.30;100.00;99028.06;5533197;32;33972;-88
2022/09/29 09:19:29;;;;;;;2.28;1.80;;;;;;;15.52;100.00;99038.56;5537312;32;34180;-87
2022/09/29 09:34:20;;;;;;;1.95;1.77;;;;;;;16.36;100.00;99039.72;5200156;30;20161;-89
2022/09/29 09:37:40;;;;;;;1.58;1.48;;;;;;;17.33;100.00;99042.00;5515361;32;34685;-89
2022/09/29 09:40:47;;;;;;;1.50;1.40;;;;;;;17.72;100.00;99056.94;5530629;32;34841;-87
2022/09/29 09:44:00;;;;;;;1.75;1.65;;;;;;;18.17;99.02;99067.66;5516019;32;32564;-89
2022/09/29 09:47:26;;;;;;;1.65;1.55;;;;;;;18.24;91.22;99062.50;5508644;32;33228;-89
2022/09/29 09:50:29;;;;;;;1.92;1.50;;;;;;;18.21;92.54;99061.00;5520566;32;34878;-87
2022/09/29 09:53:40;;;;;;;3.10;1.60;;;;;;;17.92;98.06;99060.25;5526658;32;35298;-88
2022/09/29 09:57:11;;;;;;;1.95;1.60;;;;;;;17.55;100.00;99060.47;5524407;32;33649;-89
2022/09/29 10:00:29;;;;;;;2.05;1.50;;;;;;;17.92;99.21;99064.78;5572494;26;33501;-89
2022/09/29 10:03:36;;;;;;;2.55;1.23;;;;;;;18.22;94.68;99073.41;5553522;32;33964;-91
2022/09/29 10:18:31;;;;;;;0.85;0.82;;;;;;;19.77;83.08;99037.41;5199672;30;20145;-89
2022/09/29 10:21:55;;;;;;;0.95;0.80;;;;;;;20.60;85.03;99037.25;5526251;26;33571;-90
2022/09/29 13:41:43;;;;;;;1.65;1.40;;;;;;;17.72;91.30;99109.69;5290901;27;20118;-91
2022/09/29 13:49:07;;;;;;;6.80;1.70;;;;;;;17.59;95.11;99104.72;5430781;32;20105;-85
2022/09/29 13:52:10;;;;;;;2.35;1.52;;;;;;;17.40;92.30;99114.59;5429202;32;34282;-86
2022/09/29 13:56:04;;;;;;;3.20;1.70;;;;;;;17.39;96.66;99115.59;5426067;32;33804;-86
2022/09/29 13:59:14;;;;;;;2.65;1.30;;;;;;;17.33;97.07;99117.06;5388945;32;34282;-86
2022/09/29 14:02:27;;;;;;;2.10;1.50;;;;;;;17.29;96.00;99125.53;5418857;32;34978;-86
2022/09/29 14:05:30;;;;;;;4.32;1.48;;;;;;;17.22;96.15;99130.66;5432542;32;34665;-87
2022/09/29 14:08:43;;;;;;;1.27;1.15;;;;;;;16.98;97.50;99129.34;5421340;32;34697;-85
2022/09/29 14:11:54;;;;;;;4.70;1.98;;;;;;;16.89;97.82;99133.75;5415715;32;34536;-87
2022/09/29 14:14:59;;;;;;;1.48;1.37;;;;;;;16.78;99.47;99126.75;5465116;27;33972;-86
2022/09/29 14:18:13;;;;;;;4.50;1.60;;;;;;;16.74;99.16;99136.06;5414452;32;34445;-86
2022/09/29 14:21:46;;;;;;;3.53;1.58;;;;;;;16.60;99.79;99133.88;5414991;32;34199;-90
2022/09/29 14:24:54;;;;;;;2.08;1.55;;;;;;;16.76;100.00;99135.91;5415838;32;34090;-86
2022/09/29 14:28:08;;;;;;;4.75;1.60;;;;;;;16.65;98.18;99140.47;5386129;33;33601;-86
2022/09/29 14:31:21;;;;;;;2.22;1.80;;;;;;;16.58;100.00;99144.72;5397593;33;34153;-86
2022/09/29 14:34:28;;;;;;;3.28;1.85;;;;;;;16.50;100.00;99139.25;5406014;32;34020;-86
2022/09/29 14:37:31;;;;;;;3.55;1.67;;;;;;;16.53;100.00;99152.34;5415888;32;34246;-86
2022/09/29 14:40:34;;;;;;;2.70;2.00;;;;;;;16.38;100.00;99152.78;5415375;32;34625;-86
2022/09/29 14:43:54;;;;;;;3.47;2.05;;;;;;;16.30;100.00;99150.00;5417423;32;34170;-86
2022/09/29 14:54:38;;;;;;;4.45;2.10;;;;;;;16.56;100.00;99168.13;5419575;32;34346;-86
2022/09/29 14:57:53;;;;;;;2.22;2.03;;;;;;;16.69;100.00;99171.31;5410140;32;32850;-88
2022/09/29 15:01:24;;;;;;;4.87;2.25;;;;;;;16.68;100.00;99175.00;5408711;32;32641;-87
2022/09/29 15:04:28;;;;;;;2.00;1.40;;;;;;;16.79;100.00;99183.84;5392759;32;33409;-87
2022/09/29 15:07:40;;;;;;;2.87;1.50;;;;;;;16.64;95.86;99175.44;5435563;27;33650;-88
2022/09/29 15:10:42;;;;;;;1.60;1.50;;;;;;;16.71;96.98;99172.00;5416278;32;35709;-88
2022/09/29 15:13:45;;;;;;;4.32;2.00;;;;;;;16.78;96.66;99160.72;5420429;32;31454;-86
2022/09/29 15:17:21;;;;;;;2.17;1.62;;;;;;;16.70;97.47;99177.53;5419295;32;32811;-86
2022/09/29 15:20:32;;;;;;;1.70;1.60;;;;;;;16.58;98.65;99174.16;5430332;32;35108;-88
2022/09/29 15:23:49;;;;;;;;;;;;;;;16.22;100.00;99181.97;5433707;32;34441;-86
2022/09/29 15:26:52;;;;;;;1.35;1.25;;;;;;;16.10;100.00;99175.94;5425296;32;34339;-90
2022/09/29 15:29:56;;;;;;;2.47;1.20;;;;;;;15.94;100.00;99168.47;5432396;32;34414;-90
2022/09/29 15:33:23;;;;;;;4.15;2.15;;;;;;;15.83;100.00;99170.25;5434410;32;34538;-91
2022/09/29 15:36:36;;;;;;;1.98;1.80;;;;;;;15.98;100.00;99177.87;5421003;32;32787;-87
2022/09/29 15:39:50;;;;;;;2.50;1.85;;;;;;;15.58;100.00;99176.97;5421287;32;33993;-87
